sensor_id;sensor_type;location;lat;lon;timestamp;P1;durP1;ratioP1;P2;durP2;ratioP2
35306;SDS011;21420;52.196;21.416;2022-08-19T00:01:45;14.37;;;11.80;;
35306;SDS011;21420;52.196;21.416;2022-08-19T00:04:14;15.58;;;12.80;;
35306;SDS011;21420;52.196;21.416;2022-08-19T00:06:44;13.00;;;11.65;;
35306;SDS011;21420;52.196;21.416;2022-08-19T00:09:13;15.35;;;12.15;;
35306;SDS011;21420;52.196;21.416;2022-08-19T00:11:42;15.40;;;11.53;;
35306;SDS011;21420;52.196;21.416;2022-08-19T00:14:10;13.68;;;11.68;;
35306;SDS011;21420;52.196;21.416;2022-08-19T00:16:40;16.60;;;12.30;;
35306;SDS011;21420;52.196;21.416;2022-08-19T00:19:09;15.58;;;11.68;;
35306;SDS011;21420;52.196;21.416;2022-08-19T00:21:37;16.67;;;11.90;;
35306;SDS011;21420;52.196;21.416;2022-08-19T00:24:07;17.07;;;12.33;;
35306;SDS011;21420;52.196;21.416;2022-08-19T00:26:35;17.32;;;11.88;;
35306;SDS011;21420;52.196;21.416;2022-08-19T00:29:03;14.70;;;11.45;;
35306;SDS011;21420;52.196;21.416;2022-08-19T00:31:31;13.98;;;11.70;;
35306;SDS011;21420;52.196;21.416;2022-08-19T00:33:59;14.85;;;12.28;;
35306;SDS011;21420;52.196;21.416;2022-08-19T00:36:25;17.23;;;12.10;;
35306;SDS011;21420;52.196;21.416;2022-08-19T00:38:53;14.53;;;12.00;;
35306;SDS011;21420;52.196;21.416;2022-08-19T00:41:20;14.80;;;12.25;;
35306;SDS011;21420;52.196;21.416;2022-08-19T00:44:02;13.55;;;11.35;;
35306;SDS011;21420;52.196;21.416;2022-08-19T00:46:38;15.75;;;13.03;;
35306;SDS011;21420;52.196;21.416;2022-08-19T00:51:51;15.78;;;12.60;;
35306;SDS011;21420;52.196;21.416;2022-08-19T00:54:21;14.00;;;12.33;;
35306;SDS011;21420;52.196;21.416;2022-08-19T00:56:48;13.95;;;12.53;;
35306;SDS011;21420;52.196;21.416;2022-08-19T00:59:16;17.20;;;12.68;;
35306;SDS011;21420;52.196;21.416;2022-08-19T01:01:44;15.85;;;12.30;;
35306;SDS011;21420;52.196;21.416;2022-08-19T01:04:12;14.43;;;12.68;;
35306;SDS011;21420;52.196;21.416;2022-08-19T01:06:39;15.23;;;12.28;;
35306;SDS011;21420;52.196;21.416;2022-08-19T01:09:06;15.28;;;12.13;;
35306;SDS011;21420;52.196;21.416;2022-08-19T01:11:34;13.58;;;12.28;;
35306;SDS011;21420;52.196;21.416;2022-08-19T01:14:04;15.90;;;12.75;;
35306;SDS011;21420;52.196;21.416;2022-08-19T01:16:33;17.70;;;13.10;;
35306;SDS011;21420;52.196;21.416;2022-08-19T01:19:00;16.52;;;13.03;;
35306;SDS011;21420;52.196;21.416;2022-08-19T01:21:34;17.45;;;12.45;;
35306;SDS011;21420;52.196;21.416;2022-08-19T01:24:06;15.35;;;13.70;;
35306;SDS011;21420;52.196;21.416;2022-08-19T01:26:34;18.90;;;12.85;;
35306;SDS011;21420;52.196;21.416;2022-08-19T01:29:07;14.85;;;13.05;;
35306;SDS011;21420;52.196;21.416;2022-08-19T01:31:34;14.33;;;12.88;;
35306;SDS011;21420;52.196;21.416;2022-08-19T01:34:02;13.85;;;12.43;;
35306;SDS011;21420;52.196;21.416;2022-08-19T01:36:33;16.20;;;14.05;;
35306;SDS011;21420;52.196;21.416;2022-08-19T01:39:05;14.65;;;13.03;;
35306;SDS011;21420;52.196;21.416;2022-08-19T01:41:35;13.70;;;12.28;;
35306;SDS011;21420;52.196;21.416;2022-08-19T01:44:02;13.62;;;12.30;;
35306;SDS011;21420;52.196;21.416;2022-08-19T01:46:30;17.10;;;13.28;;
35306;SDS011;21420;52.196;21.416;2022-08-19T01:48:57;14.60;;;12.78;;
35306;SDS011;21420;52.196;21.416;2022-08-19T01:51:24;14.43;;;13.08;;
35306;SDS011;21420;52.196;21.416;2022-08-19T01:53:51;14.65;;;13.15;;
35306;SDS011;21420;52.196;21.416;2022-08-19T01:56:18;15.18;;;13.10;;
35306;SDS011;21420;52.196;21.416;2022-08-19T01:58:47;15.32;;;13.72;;
35306;SDS011;21420;52.196;21.416;2022-08-19T02:01:22;16.73;;;13.60;;
35306;SDS011;21420;52.196;21.416;2022-08-19T02:03:49;15.85;;;12.88;;
35306;SDS011;21420;52.196;21.416;2022-08-19T02:06:17;15.98;;;13.65;;
35306;SDS011;21420;52.196;21.416;2022-08-19T02:08:43;15.30;;;13.40;;
35306;SDS011;21420;52.196;21.416;2022-08-19T02:11:18;14.47;;;12.70;;
35306;SDS011;21420;52.196;21.416;2022-08-19T02:13:52;16.17;;;12.93;;
35306;SDS011;21420;52.196;21.416;2022-08-19T02:19:17;14.30;;;12.75;;
35306;SDS011;21420;52.196;21.416;2022-08-19T02:21:43;14.80;;;13.22;;
35306;SDS011;21420;52.196;21.416;2022-08-19T02:24:10;15.48;;;13.32;;
35306;SDS011;21420;52.196;21.416;2022-08-19T02:26:37;16.73;;;13.48;;
35306;SDS011;21420;52.196;21.416;2022-08-19T02:29:03;17.85;;;12.63;;
35306;SDS011;21420;52.196;21.416;2022-08-19T02:31:29;14.58;;;12.93;;
35306;SDS011;21420;52.196;21.416;2022-08-19T02:33:56;14.95;;;13.03;;
35306;SDS011;21420;52.196;21.416;2022-08-19T02:36:23;14.38;;;12.82;;
35306;SDS011;21420;52.196;21.416;2022-08-19T02:38:50;13.90;;;12.18;;
35306;SDS011;21420;52.196;21.416;2022-08-19T02:41:19;18.90;;;13.60;;
35306;SDS011;21420;52.196;21.416;2022-08-19T02:43:49;16.57;;;13.30;;
35306;SDS011;21420;52.196;21.416;2022-08-19T02:46:19;15.45;;;12.63;;
35306;SDS011;21420;52.196;21.416;2022-08-19T02:48:49;15.28;;;12.63;;
35306;SDS011;21420;52.196;21.416;2022-08-19T02:51:19;15.35;;;12.85;;
35306;SDS011;21420;52.196;21.416;2022-08-19T02:53:51;15.90;;;13.85;;
35306;SDS011;21420;52.196;21.416;2022-08-19T02:56:19;15.60;;;12.82;;
35306;SDS011;21420;52.196;21.416;2022-08-19T02:58:46;13.28;;;11.95;;
35306;SDS011;21420;52.196;21.416;2022-08-19T03:03:58;18.62;;;13.03;;
35306;SDS011;21420;52.196;21.416;2022-08-19T03:06:27;16.85;;;13.70;;
35306;SDS011;21420;52.196;21.416;2022-08-19T03:08:54;15.40;;;13.43;;
35306;SDS011;21420;52.196;21.416;2022-08-19T03:11:22;16.32;;;13.20;;
35306;SDS011;21420;52.196;21.416;2022-08-19T03:13:52;14.07;;;12.68;;
35306;SDS011;21420;52.196;21.416;2022-08-19T03:16:21;14.70;;;13.13;;
35306;SDS011;21420;52.196;21.416;2022-08-19T03:18:50;13.85;;;12.47;;
35306;SDS011;21420;52.196;21.416;2022-08-19T03:21:22;15.70;;;14.10;;
35306;SDS011;21420;52.196;21.416;2022-08-19T03:23:54;13.48;;;12.15;;
35306;SDS011;21420;52.196;21.416;2022-08-19T03:26:24;17.57;;;13.13;;
35306;SDS011;21420;52.196;21.416;2022-08-19T03:28:50;14.93;;;13.35;;
35306;SDS011;21420;52.196;21.416;2022-08-19T03:31:18;14.78;;;13.03;;
35306;SDS011;21420;52.196;21.416;2022-08-19T03:33:49;15.15;;;13.25;;
35306;SDS011;21420;52.196;21.416;2022-08-19T03:36:19;15.13;;;13.78;;
35306;SDS011;21420;52.196;21.416;2022-08-19T03:38:49;13.35;;;11.97;;
35306;SDS011;21420;52.196;21.416;2022-08-19T03:41:21;16.65;;;12.58;;
35306;SDS011;21420;52.196;21.416;2022-08-19T03:43:51;14.13;;;11.97;;
35306;SDS011;21420;52.196;21.416;2022-08-19T03:46:23;17.90;;;13.50;;
35306;SDS011;21420;52.196;21.416;2022-08-19T03:48:54;19.98;;;13.90;;
35306;SDS011;21420;52.196;21.416;2022-08-19T03:53:57;19.70;;;12.85;;
35306;SDS011;21420;52.196;21.416;2022-08-19T03:56:27;19.85;;;13.08;;
35306;SDS011;21420;52.196;21.416;2022-08-19T03:58:57;20.15;;;13.68;;
35306;SDS011;21420;52.196;21.416;2022-08-19T04:01:26;15.28;;;13.53;;
35306;SDS011;21420;52.196;21.416;2022-08-19T04:03:55;15.67;;;13.70;;
35306;SDS011;21420;52.196;21.416;2022-08-19T04:06:24;19.62;;;13.18;;
35306;SDS011;21420;52.196;21.416;2022-08-19T04:08:55;19.27;;;13.25;;
35306;SDS011;21420;52.196;21.416;2022-08-19T04:11:28;19.80;;;13.55;;
35306;SDS011;21420;52.196;21.416;2022-08-19T04:13:58;15.08;;;12.35;;
35306;SDS011;21420;52.196;21.416;2022-08-19T04:16:26;14.20;;;12.68;;
35306;SDS011;21420;52.196;21.416;2022-08-19T04:18:54;17.95;;;12.30;;
35306;SDS011;21420;52.196;21.416;2022-08-19T04:21:23;16.82;;;12.93;;
35306;SDS011;21420;52.196;21.416;2022-08-19T04:23:51;14.87;;;11.20;;
35306;SDS011;21420;52.196;21.416;2022-08-19T04:26:24;14.65;;;12.23;;
35306;SDS011;21420;52.196;21.416;2022-08-19T04:28:50;13.35;;;12.05;;
35306;SDS011;21420;52.196;21.416;2022-08-19T04:31:19;14.38;;;12.93;;
35306;SDS011;21420;52.196;21.416;2022-08-19T04:33:51;16.42;;;11.83;;
35306;SDS011;21420;52.196;21.416;2022-08-19T04:36:25;13.35;;;11.65;;
35306;SDS011;21420;52.196;21.416;2022-08-19T04:38:56;16.10;;;12.65;;
35306;SDS011;21420;52.196;21.416;2022-08-19T04:41:25;19.05;;;11.97;;
35306;SDS011;21420;52.196;21.416;2022-08-19T04:44:13;16.25;;;12.43;;
35306;SDS011;21420;52.196;21.416;2022-08-19T04:46:41;14.37;;;12.10;;
35306;SDS011;21420;52.196;21.416;2022-08-19T04:49:07;18.02;;;12.18;;
35306;SDS011;21420;52.196;21.416;2022-08-19T04:51:34;13.08;;;11.73;;
35306;SDS011;21420;52.196;21.416;2022-08-19T04:54:03;12.80;;;11.47;;
35306;SDS011;21420;52.196;21.416;2022-08-19T04:56:29;13.40;;;11.25;;
35306;SDS011;21420;52.196;21.416;2022-08-19T04:58:56;17.07;;;12.82;;
35306;SDS011;21420;52.196;21.416;2022-08-19T05:01:24;14.58;;;11.43;;
35306;SDS011;21420;52.196;21.416;2022-08-19T05:03:54;14.33;;;11.30;;
35306;SDS011;21420;52.196;21.416;2022-08-19T05:06:22;12.93;;;11.25;;
35306;SDS011;21420;52.196;21.416;2022-08-19T05:08:49;13.53;;;12.23;;
35306;SDS011;21420;52.196;21.416;2022-08-19T05:11:17;17.07;;;12.00;;
35306;SDS011;21420;52.196;21.416;2022-08-19T05:13:46;13.22;;;11.93;;
35306;SDS011;21420;52.196;21.416;2022-08-19T05:16:14;13.68;;;10.95;;
35306;SDS011;21420;52.196;21.416;2022-08-19T05:18:43;15.32;;;11.78;;
35306;SDS011;21420;52.196;21.416;2022-08-19T05:21:29;16.50;;;11.48;;
35306;SDS011;21420;52.196;21.416;2022-08-19T05:24:14;17.52;;;12.30;;
35306;SDS011;21420;52.196;21.416;2022-08-19T05:26:41;13.65;;;11.22;;
35306;SDS011;21420;52.196;21.416;2022-08-19T05:29:12;17.70;;;11.93;;
35306;SDS011;21420;52.196;21.416;2022-08-19T05:31:44;13.75;;;10.90;;
35306;SDS011;21420;52.196;21.416;2022-08-19T05:34:11;17.62;;;12.00;;
35306;SDS011;21420;52.196;21.416;2022-08-19T05:36:40;18.30;;;11.40;;
35306;SDS011;21420;52.196;21.416;2022-08-19T05:39:10;13.05;;;11.73;;
35306;SDS011;21420;52.196;21.416;2022-08-19T05:41:41;16.45;;;11.93;;
35306;SDS011;21420;52.196;21.416;2022-08-19T05:44:15;16.12;;;12.05;;
35306;SDS011;21420;52.196;21.416;2022-08-19T05:46:43;15.80;;;12.45;;
35306;SDS011;21420;52.196;21.416;2022-08-19T05:49:11;14.98;;;12.13;;
35306;SDS011;21420;52.196;21.416;2022-08-19T05:51:41;16.07;;;12.43;;
35306;SDS011;21420;52.196;21.416;2022-08-19T05:54:08;18.23;;;12.75;;
35306;SDS011;21420;52.196;21.416;2022-08-19T05:56:37;17.30;;;11.80;;
35306;SDS011;21420;52.196;21.416;2022-08-19T05:59:06;12.05;;;10.82;;
35306;SDS011;21420;52.196;21.416;2022-08-19T06:01:37;12.10;;;10.88;;
35306;SDS011;21420;52.196;21.416;2022-08-19T06:04:07;13.72;;;10.32;;
35306;SDS011;21420;52.196;21.416;2022-08-19T06:06:34;16.70;;;11.48;;
35306;SDS011;21420;52.196;21.416;2022-08-19T06:09:02;12.82;;;10.88;;
35306;SDS011;21420;52.196;21.416;2022-08-19T06:14:12;11.22;;;10.23;;
35306;SDS011;21420;52.196;21.416;2022-08-19T06:16:42;13.00;;;10.40;;
35306;SDS011;21420;52.196;21.416;2022-08-19T06:19:19;9.85;;;8.98;;
35306;SDS011;21420;52.196;21.416;2022-08-19T06:21:50;13.28;;;11.28;;
35306;SDS011;21420;52.196;21.416;2022-08-19T06:24:18;14.20;;;11.63;;
35306;SDS011;21420;52.196;21.416;2022-08-19T06:26:49;15.28;;;12.40;;
35306;SDS011;21420;52.196;21.416;2022-08-19T06:29:18;12.80;;;9.83;;
35306;SDS011;21420;52.196;21.416;2022-08-19T06:31:50;16.87;;;11.95;;
35306;SDS011;21420;52.196;21.416;2022-08-19T06:34:20;14.18;;;10.82;;
35306;SDS011;21420;52.196;21.416;2022-08-19T06:36:48;13.75;;;11.75;;
35306;SDS011;21420;52.196;21.416;2022-08-19T06:39:18;14.23;;;11.43;;
35306;SDS011;21420;52.196;21.416;2022-08-19T06:41:49;13.80;;;12.40;;
35306;SDS011;21420;52.196;21.416;2022-08-19T06:44:19;13.03;;;11.50;;
35306;SDS011;21420;52.196;21.416;2022-08-19T06:46:47;13.00;;;10.98;;
35306;SDS011;21420;52.196;21.416;2022-08-19T06:49:16;13.32;;;11.90;;
35306;SDS011;21420;52.196;21.416;2022-08-19T06:51:45;13.93;;;12.03;;
35306;SDS011;21420;52.196;21.416;2022-08-19T06:54:14;23.85;;;12.18;;
35306;SDS011;21420;52.196;21.416;2022-08-19T06:56:42;15.93;;;12.00;;
35306;SDS011;21420;52.196;21.416;2022-08-19T06:59:09;15.95;;;11.68;;
35306;SDS011;21420;52.196;21.416;2022-08-19T07:01:44;12.03;;;10.58;;
35306;SDS011;21420;52.196;21.416;2022-08-19T07:04:15;12.25;;;10.13;;
35306;SDS011;21420;52.196;21.416;2022-08-19T07:06:46;12.65;;;9.98;;
35306;SDS011;21420;52.196;21.416;2022-08-19T07:09:15;11.08;;;9.40;;
35306;SDS011;21420;52.196;21.416;2022-08-19T07:11:44;15.05;;;9.60;;
35306;SDS011;21420;52.196;21.416;2022-08-19T07:14:13;10.90;;;9.78;;
35306;SDS011;21420;52.196;21.416;2022-08-19T07:16:41;10.08;;;9.08;;
35306;SDS011;21420;52.196;21.416;2022-08-19T07:19:08;11.55;;;8.85;;
35306;SDS011;21420;52.196;21.416;2022-08-19T07:21:34;12.98;;;9.05;;
35306;SDS011;21420;52.196;21.416;2022-08-19T07:24:03;10.35;;;8.68;;
35306;SDS011;21420;52.196;21.416;2022-08-19T07:26:32;12.23;;;8.47;;
35306;SDS011;21420;52.196;21.416;2022-08-19T07:29:01;12.15;;;8.23;;
35306;SDS011;21420;52.196;21.416;2022-08-19T07:31:27;8.58;;;7.42;;
35306;SDS011;21420;52.196;21.416;2022-08-19T07:33:55;14.60;;;8.33;;
35306;SDS011;21420;52.196;21.416;2022-08-19T07:36:23;11.97;;;7.87;;
35306;SDS011;21420;52.196;21.416;2022-08-19T07:38:54;9.88;;;7.70;;
35306;SDS011;21420;52.196;21.416;2022-08-19T07:41:21;11.63;;;7.42;;
35306;SDS011;21420;52.196;21.416;2022-08-19T07:43:50;12.70;;;7.65;;
35306;SDS011;21420;52.196;21.416;2022-08-19T07:46:17;13.03;;;8.20;;
35306;SDS011;21420;52.196;21.416;2022-08-19T07:48:46;11.93;;;7.45;;
35306;SDS011;21420;52.196;21.416;2022-08-19T07:51:17;10.08;;;7.75;;
35306;SDS011;21420;52.196;21.416;2022-08-19T07:53:48;9.18;;;8.08;;
35306;SDS011;21420;52.196;21.416;2022-08-19T07:56:17;10.90;;;7.50;;
35306;SDS011;21420;52.196;21.416;2022-08-19T07:58:47;8.03;;;7.22;;
35306;SDS011;21420;52.196;21.416;2022-08-19T08:01:24;10.95;;;8.08;;
35306;SDS011;21420;52.196;21.416;2022-08-19T08:03:50;10.32;;;7.45;;
35306;SDS011;21420;52.196;21.416;2022-08-19T08:06:36;10.35;;;7.50;;
35306;SDS011;21420;52.196;21.416;2022-08-19T08:09:30;11.53;;;7.35;;
35306;SDS011;21420;52.196;21.416;2022-08-19T08:11:57;8.25;;;7.08;;
35306;SDS011;21420;52.196;21.416;2022-08-19T08:14:44;8.45;;;7.08;;
35306;SDS011;21420;52.196;21.416;2022-08-19T08:17:13;12.03;;;7.42;;
35306;SDS011;21420;52.196;21.416;2022-08-19T08:19:42;8.40;;;7.37;;
35306;SDS011;21420;52.196;21.416;2022-08-19T08:25:06;9.97;;;7.23;;
35306;SDS011;21420;52.196;21.416;2022-08-19T08:27:43;9.48;;;7.33;;
35306;SDS011;21420;52.196;21.416;2022-08-19T08:30:07;10.28;;;7.37;;
35306;SDS011;21420;52.196;21.416;2022-08-19T08:32:37;9.58;;;7.58;;
35306;SDS011;21420;52.196;21.416;2022-08-19T08:35:05;11.85;;;7.25;;
35306;SDS011;21420;52.196;21.416;2022-08-19T08:37:35;12.53;;;7.55;;
35306;SDS011;21420;52.196;21.416;2022-08-19T08:40:04;12.18;;;7.30;;
35306;SDS011;21420;52.196;21.416;2022-08-19T08:43:01;10.35;;;7.28;;
35306;SDS011;21420;52.196;21.416;2022-08-19T08:45:25;8.23;;;7.42;;
35306;SDS011;21420;52.196;21.416;2022-08-19T08:47:53;9.03;;;6.40;;
35306;SDS011;21420;52.196;21.416;2022-08-19T08:50:29;19.50;;;7.80;;
35306;SDS011;21420;52.196;21.416;2022-08-19T08:53:01;9.15;;;6.83;;
35306;SDS011;21420;52.196;21.416;2022-08-19T08:55:31;6.97;;;6.33;;
35306;SDS011;21420;52.196;21.416;2022-08-19T08:58:01;10.38;;;6.80;;
35306;SDS011;21420;52.196;21.416;2022-08-19T09:00:45;7.45;;;6.67;;
35306;SDS011;21420;52.196;21.416;2022-08-19T09:03:27;8.30;;;6.42;;
35306;SDS011;21420;52.196;21.416;2022-08-19T09:05:59;10.78;;;6.40;;
35306;SDS011;21420;52.196;21.416;2022-08-19T09:08:45;11.38;;;5.30;;
35306;SDS011;21420;52.196;21.416;2022-08-19T09:11:43;7.40;;;6.53;;
35306;SDS011;21420;52.196;21.416;2022-08-19T09:17:21;9.58;;;6.05;;
35306;SDS011;21420;52.196;21.416;2022-08-19T09:22:25;7.00;;;5.80;;
35306;SDS011;21420;52.196;21.416;2022-08-19T09:24:52;7.00;;;6.30;;
35306;SDS011;21420;52.196;21.416;2022-08-19T09:27:19;9.05;;;6.12;;
35306;SDS011;21420;52.196;21.416;2022-08-19T09:29:49;6.00;;;5.40;;
35306;SDS011;21420;52.196;21.416;2022-08-19T09:32:19;8.45;;;5.85;;
35306;SDS011;21420;52.196;21.416;2022-08-19T09:34:47;8.63;;;5.83;;
35306;SDS011;21420;52.196;21.416;2022-08-19T09:37:13;10.25;;;6.03;;
35306;SDS011;21420;52.196;21.416;2022-08-19T09:39:40;11.05;;;5.72;;
35306;SDS011;21420;52.196;21.416;2022-08-19T09:42:08;10.53;;;6.37;;
35306;SDS011;21420;52.196;21.416;2022-08-19T09:44:39;12.73;;;5.80;;
35306;SDS011;21420;52.196;21.416;2022-08-19T09:47:08;7.67;;;5.37;;
35306;SDS011;21420;52.196;21.416;2022-08-19T09:49:36;12.47;;;5.65;;
35306;SDS011;21420;52.196;21.416;2022-08-19T09:52:05;9.50;;;4.92;;
35306;SDS011;21420;52.196;21.416;2022-08-19T09:54:34;8.45;;;5.30;;
35306;SDS011;21420;52.196;21.416;2022-08-19T09:57:00;8.15;;;5.03;;
35306;SDS011;21420;52.196;21.416;2022-08-19T09:59:27;7.00;;;5.03;;
35306;SDS011;21420;52.196;21.416;2022-08-19T10:01:54;6.83;;;5.17;;
35306;SDS011;21420;52.196;21.416;2022-08-19T10:04:22;8.70;;;4.83;;
35306;SDS011;21420;52.196;21.416;2022-08-19T10:06:51;7.15;;;5.30;;
35306;SDS011;21420;52.196;21.416;2022-08-19T10:09:20;9.45;;;5.03;;
35306;SDS011;21420;52.196;21.416;2022-08-19T10:11:47;8.33;;;4.75;;
35306;SDS011;21420;52.196;21.416;2022-08-19T10:14:15;6.83;;;4.70;;
35306;SDS011;21420;52.196;21.416;2022-08-19T10:16:42;6.30;;;5.10;;
35306;SDS011;21420;52.196;21.416;2022-08-19T10:19:09;6.08;;;4.65;;
35306;SDS011;21420;52.196;21.416;2022-08-19T10:21:35;7.33;;;5.33;;
35306;SDS011;21420;52.196;21.416;2022-08-19T10:24:03;14.53;;;5.95;;
35306;SDS011;21420;52.196;21.416;2022-08-19T10:26:32;8.73;;;5.45;;
35306;SDS011;21420;52.196;21.416;2022-08-19T10:29:03;10.18;;;5.22;;
35306;SDS011;21420;52.196;21.416;2022-08-19T10:31:33;11.35;;;5.00;;
35306;SDS011;21420;52.196;21.416;2022-08-19T10:34:00;11.00;;;6.33;;
35306;SDS011;21420;52.196;21.416;2022-08-19T10:36:31;8.93;;;5.50;;
35306;SDS011;21420;52.196;21.416;2022-08-19T10:39:02;8.43;;;5.40;;
35306;SDS011;21420;52.196;21.416;2022-08-19T10:41:32;8.63;;;5.28;;
35306;SDS011;21420;52.196;21.416;2022-08-19T10:44:03;10.98;;;5.25;;
35306;SDS011;21420;52.196;21.416;2022-08-19T10:46:35;10.38;;;5.37;;
35306;SDS011;21420;52.196;21.416;2022-08-19T10:49:06;6.05;;;4.58;;
35306;SDS011;21420;52.196;21.416;2022-08-19T10:51:35;12.95;;;5.15;;
35306;SDS011;21420;52.196;21.416;2022-08-19T10:54:20;8.48;;;4.62;;
35306;SDS011;21420;52.196;21.416;2022-08-19T10:56:47;9.00;;;4.42;;
35306;SDS011;21420;52.196;21.416;2022-08-19T10:59:20;6.65;;;4.42;;
35306;SDS011;21420;52.196;21.416;2022-08-19T11:01:53;7.55;;;4.70;;
35306;SDS011;21420;52.196;21.416;2022-08-19T11:04:25;8.43;;;4.37;;
35306;SDS011;21420;52.196;21.416;2022-08-19T11:06:53;10.35;;;4.10;;
35306;SDS011;21420;52.196;21.416;2022-08-19T11:09:22;6.53;;;4.78;;
35306;SDS011;21420;52.196;21.416;2022-08-19T11:11:50;5.70;;;4.55;;
35306;SDS011;21420;52.196;21.416;2022-08-19T11:14:19;5.40;;;4.10;;
35306;SDS011;21420;52.196;21.416;2022-08-19T11:16:49;8.85;;;4.03;;
35306;SDS011;21420;52.196;21.416;2022-08-19T11:19:17;6.33;;;4.15;;
35306;SDS011;21420;52.196;21.416;2022-08-19T11:21:45;6.72;;;4.22;;
35306;SDS011;21420;52.196;21.416;2022-08-19T11:24:16;7.80;;;4.30;;
35306;SDS011;21420;52.196;21.416;2022-08-19T11:26:47;12.20;;;4.78;;
35306;SDS011;21420;52.196;21.416;2022-08-19T11:29:16;7.65;;;4.65;;
35306;SDS011;21420;52.196;21.416;2022-08-19T11:31:47;12.00;;;4.22;;
35306;SDS011;21420;52.196;21.416;2022-08-19T11:34:16;5.75;;;4.03;;
35306;SDS011;21420;52.196;21.416;2022-08-19T11:36:48;7.58;;;4.35;;
35306;SDS011;21420;52.196;21.416;2022-08-19T11:39:18;8.90;;;4.10;;
35306;SDS011;21420;52.196;21.416;2022-08-19T11:41:47;9.88;;;4.53;;
35306;SDS011;21420;52.196;21.416;2022-08-19T11:44:14;8.90;;;4.35;;
35306;SDS011;21420;52.196;21.416;2022-08-19T11:46:42;7.25;;;4.30;;
35306;SDS011;21420;52.196;21.416;2022-08-19T11:49:11;7.83;;;4.50;;
35306;SDS011;21420;52.196;21.416;2022-08-19T11:51:41;12.65;;;4.95;;
35306;SDS011;21420;52.196;21.416;2022-08-19T11:54:10;7.55;;;4.15;;
35306;SDS011;21420;52.196;21.416;2022-08-19T11:56:42;8.98;;;4.75;;
35306;SDS011;21420;52.196;21.416;2022-08-19T11:59:07;12.05;;;3.87;;
35306;SDS011;21420;52.196;21.416;2022-08-19T12:01:34;6.78;;;4.20;;
35306;SDS011;21420;52.196;21.416;2022-08-19T12:04:00;8.23;;;4.22;;
35306;SDS011;21420;52.196;21.416;2022-08-19T12:06:28;9.73;;;4.30;;
35306;SDS011;21420;52.196;21.416;2022-08-19T12:09:05;8.13;;;4.10;;
35306;SDS011;21420;52.196;21.416;2022-08-19T12:11:34;9.38;;;3.92;;
35306;SDS011;21420;52.196;21.416;2022-08-19T12:14:02;10.70;;;4.28;;
35306;SDS011;21420;52.196;21.416;2022-08-19T12:16:31;9.90;;;4.30;;
35306;SDS011;21420;52.196;21.416;2022-08-19T12:18:58;7.72;;;3.83;;
35306;SDS011;21420;52.196;21.416;2022-08-19T12:21:27;7.87;;;4.25;;
35306;SDS011;21420;52.196;21.416;2022-08-19T12:23:54;7.30;;;4.20;;
35306;SDS011;21420;52.196;21.416;2022-08-19T12:26:24;11.57;;;4.37;;
35306;SDS011;21420;52.196;21.416;2022-08-19T12:28:52;5.25;;;3.98;;
35306;SDS011;21420;52.196;21.416;2022-08-19T12:31:19;6.60;;;4.40;;
35306;SDS011;21420;52.196;21.416;2022-08-19T12:33:46;8.85;;;4.22;;
35306;SDS011;21420;52.196;21.416;2022-08-19T12:36:14;8.63;;;4.53;;
35306;SDS011;21420;52.196;21.416;2022-08-19T12:38:43;6.65;;;4.15;;
35306;SDS011;21420;52.196;21.416;2022-08-19T12:41:12;7.10;;;3.90;;
35306;SDS011;21420;52.196;21.416;2022-08-19T12:43:43;7.25;;;4.20;;
35306;SDS011;21420;52.196;21.416;2022-08-19T12:46:09;6.50;;;3.95;;
35306;SDS011;21420;52.196;21.416;2022-08-19T12:48:38;6.10;;;4.05;;
35306;SDS011;21420;52.196;21.416;2022-08-19T12:53:40;6.37;;;3.67;;
35306;SDS011;21420;52.196;21.416;2022-08-19T12:56:08;9.28;;;4.00;;
35306;SDS011;21420;52.196;21.416;2022-08-19T12:58:36;9.13;;;3.95;;
35306;SDS011;21420;52.196;21.416;2022-08-19T13:01:06;8.35;;;4.10;;
35306;SDS011;21420;52.196;21.416;2022-08-19T13:03:35;9.78;;;3.95;;
35306;SDS011;21420;52.196;21.416;2022-08-19T13:06:02;6.35;;;4.28;;
35306;SDS011;21420;52.196;21.416;2022-08-19T13:08:28;6.67;;;4.20;;
35306;SDS011;21420;52.196;21.416;2022-08-19T13:10:55;10.80;;;4.17;;
35306;SDS011;21420;52.196;21.416;2022-08-19T13:13:21;5.12;;;3.83;;
35306;SDS011;21420;52.196;21.416;2022-08-19T13:15:48;7.62;;;4.60;;
35306;SDS011;21420;52.196;21.416;2022-08-19T13:18:14;7.97;;;3.83;;
35306;SDS011;21420;52.196;21.416;2022-08-19T13:20:41;7.50;;;4.05;;
35306;SDS011;21420;52.196;21.416;2022-08-19T13:23:08;4.25;;;3.80;;
35306;SDS011;21420;52.196;21.416;2022-08-19T13:25:35;8.90;;;4.70;;
35306;SDS011;21420;52.196;21.416;2022-08-19T13:28:03;10.55;;;4.72;;
35306;SDS011;21420;52.196;21.416;2022-08-19T13:30:31;10.78;;;4.12;;
35306;SDS011;21420;52.196;21.416;2022-08-19T13:33:17;5.75;;;3.90;;
35306;SDS011;21420;52.196;21.416;2022-08-19T13:38:20;9.05;;;4.30;;
35306;SDS011;21420;52.196;21.416;2022-08-19T13:40:47;7.97;;;4.20;;
35306;SDS011;21420;52.196;21.416;2022-08-19T13:43:17;8.33;;;4.10;;
35306;SDS011;21420;52.196;21.416;2022-08-19T13:45:44;8.20;;;4.97;;
35306;SDS011;21420;52.196;21.416;2022-08-19T13:48:13;6.83;;;4.33;;
35306;SDS011;21420;52.196;21.416;2022-08-19T13:50:40;6.70;;;4.30;;
35306;SDS011;21420;52.196;21.416;2022-08-19T13:53:10;18.10;;;4.72;;
35306;SDS011;21420;52.196;21.416;2022-08-19T13:55:38;10.08;;;4.50;;
35306;SDS011;21420;52.196;21.416;2022-08-19T13:58:07;10.45;;;4.53;;
35306;SDS011;21420;52.196;21.416;2022-08-19T14:00:35;9.55;;;4.22;;
35306;SDS011;21420;52.196;21.416;2022-08-19T14:03:05;7.60;;;4.35;;
35306;SDS011;21420;52.196;21.416;2022-08-19T14:05:32;9.03;;;4.62;;
35306;SDS011;21420;52.196;21.416;2022-08-19T14:08:00;9.60;;;4.28;;
35306;SDS011;21420;52.196;21.416;2022-08-19T14:10:27;9.20;;;4.33;;
35306;SDS011;21420;52.196;21.416;2022-08-19T14:12:56;8.40;;;5.07;;
35306;SDS011;21420;52.196;21.416;2022-08-19T14:15:26;7.87;;;4.15;;
35306;SDS011;21420;52.196;21.416;2022-08-19T14:17:53;7.70;;;4.37;;
35306;SDS011;21420;52.196;21.416;2022-08-19T14:20:20;9.53;;;4.40;;
35306;SDS011;21420;52.196;21.416;2022-08-19T14:22:47;11.65;;;4.40;;
35306;SDS011;21420;52.196;21.416;2022-08-19T14:25:16;7.72;;;4.15;;
35306;SDS011;21420;52.196;21.416;2022-08-19T14:27:46;5.00;;;3.87;;
35306;SDS011;21420;52.196;21.416;2022-08-19T14:30:14;6.08;;;4.25;;
35306;SDS011;21420;52.196;21.416;2022-08-19T14:32:45;6.80;;;4.42;;
35306;SDS011;21420;52.196;21.416;2022-08-19T14:35:12;6.55;;;4.03;;
35306;SDS011;21420;52.196;21.416;2022-08-19T14:37:43;8.37;;;4.87;;
35306;SDS011;21420;52.196;21.416;2022-08-19T14:40:10;4.78;;;4.22;;
35306;SDS011;21420;52.196;21.416;2022-08-19T14:42:44;4.40;;;3.80;;
35306;SDS011;21420;52.196;21.416;2022-08-19T14:45:11;9.70;;;4.20;;
35306;SDS011;21420;52.196;21.416;2022-08-19T14:47:39;6.00;;;3.92;;
35306;SDS011;21420;52.196;21.416;2022-08-19T14:50:06;7.15;;;4.33;;
35306;SDS011;21420;52.196;21.416;2022-08-19T14:52:37;8.45;;;4.58;;
35306;SDS011;21420;52.196;21.416;2022-08-19T14:55:04;6.25;;;4.05;;
35306;SDS011;21420;52.196;21.416;2022-08-19T14:57:34;7.03;;;4.30;;
35306;SDS011;21420;52.196;21.416;2022-08-19T15:00:01;10.97;;;4.70;;
35306;SDS011;21420;52.196;21.416;2022-08-19T15:02:29;6.15;;;4.10;;